createdAt,value
2022-12-13T00:00:52.176Z,-6.72
2022-12-13T00:03:39.792Z,-7.01
2022-12-13T00:06:27.368Z,-6.96
2022-12-13T00:09:14.993Z,-7.10
2022-12-13T00:12:02.577Z,-7.07
2022-12-13T00:14:50.166Z,-7.08
2022-12-13T00:17:37.778Z,-6.99
2022-12-13T00:20:25.373Z,-6.93
2022-12-13T00:23:12.960Z,-6.99
2022-12-13T00:26:00.588Z,-6.95
2022-12-13T00:28:48.164Z,-6.88
2022-12-13T00:34:43.277Z,-6.91
2022-12-13T00:37:30.889Z,-6.92
2022-12-13T00:40:18.479Z,-6.87
2022-12-13T00:43:06.080Z,-7.09
2022-12-13T00:45:53.695Z,-6.93
2022-12-13T00:48:41.276Z,-7.02
2022-12-13T00:51:28.839Z,-7.01
2022-12-13T00:54:16.423Z,-6.70
2022-12-13T00:57:03.982Z,-6.53
2022-12-13T00:59:51.594Z,-6.78
2022-12-13T01:02:40.422Z,-6.54
2022-12-13T01:06:12.612Z,-6.23
2022-12-13T01:08:35.534Z,-6.78
2022-12-13T01:11:23.126Z,-6.05
2022-12-13T01:14:10.689Z,-5.99
2022-12-13T01:16:58.331Z,-6.71
2022-12-13T01:19:45.942Z,-6.16
2022-12-13T01:22:33.570Z,-6.18
2022-12-13T01:25:21.143Z,-6.32
2022-12-13T01:28:08.783Z,-6.04
2022-12-13T01:30:58.563Z,-5.78
2022-12-13T01:33:46.285Z,-6.81
2022-12-13T01:36:33.914Z,-6.40
2022-12-13T01:39:26.293Z,-6.44
2022-12-13T01:42:14.512Z,-6.25
2022-12-13T01:45:02.097Z,-5.68
2022-12-13T01:47:49.682Z,-5.38
2022-12-13T01:50:37.288Z,-6.37
2022-12-13T01:53:24.868Z,-6.41
2022-12-13T01:56:14.470Z,-5.68
2022-12-13T01:59:02.048Z,-6.00
2022-12-13T02:01:49.709Z,-5.83
2022-12-13T02:04:37.462Z,-5.88
2022-12-13T02:07:31.929Z,-5.95
2022-12-13T02:10:19.519Z,-5.81
2022-12-13T02:13:07.126Z,-6.11
2022-12-13T02:15:54.785Z,-6.14
2022-12-13T02:18:42.401Z,-6.68
2022-12-13T02:21:30.117Z,-6.15
2022-12-13T02:24:19.677Z,-6.18
2022-12-13T02:27:07.316Z,-5.47
2022-12-13T02:29:54.903Z,-5.77
2022-12-13T02:32:42.498Z,-6.41
2022-12-13T02:35:30.090Z,-6.09
2022-12-13T02:38:22.950Z,-5.81
2022-12-13T02:41:12.128Z,-5.74
2022-12-13T02:44:01.515Z,-5.96
2022-12-13T02:46:49.272Z,-5.79
2022-12-13T02:49:36.855Z,-6.08
2022-12-13T02:52:24.430Z,-5.32
2022-12-13T02:55:12.175Z,-5.73
2022-12-13T02:57:59.887Z,-5.45
2022-12-13T03:00:47.479Z,-5.38
2022-12-13T03:03:35.208Z,-5.78
2022-12-13T03:06:22.855Z,-5.35
2022-12-13T03:09:10.445Z,-5.30
2022-12-13T03:11:58.022Z,-5.67
2022-12-13T03:14:45.595Z,-6.05
2022-12-13T03:17:33.135Z,-5.42
2022-12-13T03:20:22.732Z,-5.62
2022-12-13T03:23:11.138Z,-5.44
2022-12-13T03:25:58.727Z,-4.98
2022-12-13T03:28:46.290Z,-5.98
2022-12-13T03:31:33.952Z,-5.33
2022-12-13T03:34:23.041Z,-5.46
2022-12-13T03:37:11.227Z,-5.15
2022-12-13T03:39:58.802Z,-5.51
2022-12-13T03:42:46.413Z,-5.19
2022-12-13T03:45:33.982Z,-5.91
2022-12-13T03:48:22.067Z,-6.11
2022-12-13T03:51:10.740Z,-6.35
2022-12-13T03:53:58.334Z,-5.89
2022-12-13T03:56:45.918Z,-6.08
2022-12-13T03:59:33.504Z,-6.37
2022-12-13T04:02:31.547Z,-6.61
2022-12-13T04:05:19.342Z,-6.42
2022-12-13T04:08:21.500Z,-5.89
2022-12-13T04:11:09.711Z,-5.70
2022-12-13T04:14:22.644Z,-5.44
2022-12-13T04:17:20.364Z,-5.84
2022-12-13T04:20:07.943Z,-5.90
2022-12-13T04:22:55.534Z,-5.88
2022-12-13T04:25:43.139Z,-5.84
2022-12-13T04:28:31.683Z,-5.90
2022-12-13T04:31:19.349Z,-6.10
2022-12-13T04:34:06.995Z,-6.57
2022-12-13T04:36:54.694Z,-6.56
2022-12-13T04:39:47.898Z,-5.91
2022-12-13T04:42:35.783Z,-5.99
2022-12-13T04:45:23.359Z,-5.75
2022-12-13T04:48:10.940Z,-5.25
2022-12-13T04:50:58.518Z,-6.22
2022-12-13T04:53:49.091Z,-5.88
2022-12-13T04:56:36.676Z,-5.83
2022-12-13T04:59:24.304Z,-6.25
2022-12-13T05:02:11.908Z,-5.87
2022-12-13T05:04:59.527Z,-5.71
2022-12-13T05:07:47.083Z,-5.68
2022-12-13T05:10:38.072Z,-5.58
2022-12-13T05:13:25.826Z,-5.39
2022-12-13T05:16:13.444Z,-5.68
2022-12-13T05:19:01.034Z,-6.31
2022-12-13T05:21:48.639Z,-6.16
2022-12-13T05:24:36.224Z,-5.91
2022-12-13T05:27:26.773Z,-5.97
2022-12-13T05:30:14.590Z,-6.05
2022-12-13T05:33:02.163Z,-6.17
2022-12-13T05:35:49.752Z,-6.26
2022-12-13T05:38:37.375Z,-5.81
2022-12-13T05:41:24.968Z,-6.52
2022-12-13T05:44:12.564Z,-6.20
2022-12-13T05:47:02.146Z,-5.85
2022-12-13T05:49:50.650Z,-5.68
2022-12-13T05:52:38.241Z,-6.23
2022-12-13T05:55:25.873Z,-6.18
2022-12-13T05:58:15.467Z,-6.32
2022-12-13T06:01:11.030Z,-5.89
2022-12-13T06:03:59.322Z,-5.75
2022-12-13T06:06:46.950Z,-5.46
2022-12-13T06:09:40.180Z,-5.35
2022-12-13T06:12:31.811Z,-5.17
2022-12-13T06:15:22.124Z,-5.25
2022-12-13T06:18:10.365Z,-5.39
2022-12-13T06:20:57.955Z,-5.11
2022-12-13T06:23:45.541Z,-4.88
2022-12-13T06:26:33.111Z,-4.92
2022-12-13T06:29:23.393Z,-5.71
2022-12-13T06:32:12.706Z,-5.29
2022-12-13T06:35:00.358Z,-4.87
2022-12-13T06:37:47.950Z,-5.72
2022-12-13T06:40:35.583Z,-5.88
2022-12-13T06:43:23.159Z,-5.90
2022-12-13T06:46:10.797Z,-5.33
2022-12-13T06:48:58.427Z,-5.29
2022-12-13T06:51:46.003Z,-5.13
2022-12-13T06:54:33.614Z,-4.98
2022-12-13T06:57:21.179Z,-4.85
2022-12-13T07:00:08.801Z,-4.61
2022-12-13T07:02:56.438Z,-4.84
2022-12-13T07:05:44.134Z,-4.45
2022-12-13T07:08:31.779Z,-5.67
2022-12-13T07:11:19.418Z,-6.13
2022-12-13T07:14:07.014Z,-6.19
2022-12-13T07:16:59.606Z,-6.05
2022-12-13T07:19:50.555Z,-5.38
2022-12-13T07:22:44.775Z,-4.79
2022-12-13T07:25:32.928Z,-5.14
2022-12-13T07:28:20.526Z,-5.51
2022-12-13T07:31:08.372Z,-5.47
2022-12-13T07:33:56.034Z,-5.51
2022-12-13T07:36:43.640Z,-5.91
2022-12-13T07:39:31.279Z,-5.57
2022-12-13T07:42:18.883Z,-5.80
2022-12-13T07:45:06.482Z,-5.59
2022-12-13T07:47:54.072Z,-5.44
2022-12-13T07:50:41.658Z,-5.19
2022-12-13T07:53:29.249Z,-5.53
2022-12-13T07:56:21.163Z,-5.72
2022-12-13T07:59:08.767Z,-5.29
2022-12-13T08:01:56.369Z,-5.14
2022-12-13T08:04:44.046Z,-5.12
2022-12-13T08:07:31.658Z,-4.97
2022-12-13T08:10:19.257Z,-5.08
2022-12-13T08:13:06.832Z,-5.06
2022-12-13T08:15:54.457Z,-5.15
2022-12-13T08:18:42.162Z,-4.98
2022-12-13T08:21:53.183Z,-4.70
2022-12-13T08:24:37.288Z,-4.77
2022-12-13T08:27:24.875Z,-4.58
2022-12-13T08:30:22.872Z,-4.68
2022-12-13T08:33:10.922Z,-4.65
2022-12-13T08:35:58.577Z,-4.23
2022-12-13T08:38:46.178Z,-4.12
2022-12-13T08:41:38.908Z,-3.82
2022-12-13T08:44:26.939Z,-4.14
2022-12-13T08:47:24.240Z,-4.54
2022-12-13T08:50:13.070Z,-4.84
2022-12-13T08:53:00.689Z,-4.40
2022-12-13T08:55:48.301Z,-4.13
2022-12-13T08:58:35.878Z,-4.37
2022-12-13T09:01:23.552Z,-4.79
2022-12-13T09:04:11.158Z,-4.23
2022-12-13T09:07:01.829Z,-4.14
2022-12-13T09:09:55.066Z,-3.97
2022-12-13T09:12:42.826Z,-4.12
2022-12-13T09:15:33.830Z,-3.60
2022-12-13T09:18:23.997Z,-3.49
2022-12-13T09:21:13.156Z,-3.74
2022-12-13T09:24:24.627Z,-3.21
2022-12-13T09:27:27.777Z,-3.04
2022-12-13T09:30:16.036Z,-4.12
2022-12-13T09:33:18.320Z,-3.53
2022-12-13T09:36:11.320Z,-3.36
2022-12-13T09:38:58.915Z,-2.70
2022-12-13T09:41:46.530Z,-2.32
2022-12-13T09:44:45.234Z,-2.47
2022-12-13T09:47:35.892Z,-1.81
2022-12-13T09:50:25.206Z,-2.10
2022-12-13T09:53:21.046Z,-2.72
2022-12-13T09:56:10.593Z,-2.79
2022-12-13T09:58:58.886Z,-2.34
2022-12-13T10:01:46.469Z,-2.73
2022-12-13T10:04:34.094Z,-2.59
2022-12-13T10:07:21.684Z,-2.50
2022-12-13T10:10:09.290Z,-3.05
2022-12-13T10:12:56.878Z,-2.71
2022-12-13T10:15:44.478Z,-3.39
2022-12-13T10:18:32.066Z,-2.83
2022-12-13T10:21:19.661Z,-2.66
2022-12-13T10:24:26.020Z,-2.55
2022-12-13T10:27:14.760Z,-2.16
2022-12-13T10:30:02.366Z,-2.35
2022-12-13T10:32:50.083Z,-2.04
2022-12-13T10:35:37.668Z,-1.76
2022-12-13T10:38:31.612Z,-1.40
2022-12-13T10:41:19.879Z,-0.84
2022-12-13T10:44:09.473Z,-2.36
2022-12-13T10:46:57.077Z,-2.22
2022-12-13T10:49:44.758Z,-1.92
2022-12-13T10:52:32.362Z,-1.61
2022-12-13T10:55:24.212Z,-1.91
2022-12-13T10:58:11.851Z,-1.64
2022-12-13T11:00:59.487Z,-1.07
2022-12-13T11:03:47.129Z,-1.02
2022-12-13T11:06:34.753Z,-0.91
2022-12-13T11:09:38.308Z,-0.96
2022-12-13T11:12:26.960Z,-1.06
2022-12-13T11:15:14.591Z,-0.77
2022-12-13T11:18:02.189Z,-1.39
2022-12-13T11:20:54.099Z,-1.34
2022-12-13T11:23:41.879Z,-0.84
2022-12-13T11:26:29.513Z,-0.78
2022-12-13T11:29:17.131Z,-0.64
2022-12-13T11:32:04.755Z,-0.96
2022-12-13T11:34:52.416Z,-1.17
2022-12-13T11:37:39.983Z,-1.77
2022-12-13T11:40:27.670Z,-1.43
2022-12-13T11:43:17.215Z,-2.01
2022-12-13T11:46:04.948Z,-1.18
2022-12-13T11:48:52.555Z,-0.87
2022-12-13T11:51:40.138Z,-0.88
2022-12-13T11:54:27.705Z,-1.73
2022-12-13T11:57:15.302Z,-1.61
2022-12-13T12:00:02.967Z,-1.40
2022-12-13T12:02:50.639Z,-1.86
2022-12-13T12:05:38.259Z,-2.15
2022-12-13T12:08:31.657Z,-1.79
2022-12-13T12:11:20.163Z,-1.44
2022-12-13T12:14:07.756Z,-1.20
2022-12-13T12:16:55.346Z,-0.63
2022-12-13T12:19:42.941Z,-0.02
2022-12-13T12:22:30.497Z,0.33
2022-12-13T12:25:20.106Z,0.77
2022-12-13T12:28:07.969Z,0.71
2022-12-13T12:30:55.647Z,0.84
2022-12-13T12:33:43.233Z,0.87
2022-12-13T12:36:30.829Z,0.87
2022-12-13T12:39:18.411Z,0.11
2022-12-13T12:42:06.090Z,-0.19
2022-12-13T12:44:53.681Z,0.53
2022-12-13T12:48:29.210Z,0.63
2022-12-13T12:50:48.751Z,0.48
2022-12-13T12:53:36.449Z,0.51
2022-12-13T12:56:24.027Z,0.43
2022-12-13T12:59:11.626Z,0.50
2022-12-13T13:01:59.268Z,0.39
2022-12-13T13:04:46.910Z,0.28
2022-12-13T13:07:39.799Z,-0.35
2022-12-13T13:10:28.032Z,-0.38
2022-12-13T13:13:15.615Z,-0.45
2022-12-13T13:16:20.905Z,-0.14
2022-12-13T13:19:10.483Z,-0.37
2022-12-13T13:22:01.633Z,-0.10
2022-12-13T13:24:49.937Z,-0.38
2022-12-13T13:27:37.525Z,-0.16
2022-12-13T13:30:25.089Z,-0.04
2022-12-13T13:33:12.680Z,0.11
2022-12-13T13:36:00.277Z,-0.24
2022-12-13T13:38:47.886Z,-0.14
2022-12-13T13:41:35.492Z,-0.28
2022-12-13T13:44:23.120Z,-0.15
2022-12-13T13:47:16.468Z,-0.38
2022-12-13T13:50:04.079Z,-0.27
2022-12-13T13:52:51.699Z,-0.09
2022-12-13T13:55:39.269Z,-0.48
2022-12-13T13:58:26.853Z,-1.31
2022-12-13T14:01:14.552Z,-0.92
2022-12-13T14:04:02.249Z,-0.58
2022-12-13T14:06:49.845Z,-0.79
2022-12-13T14:09:38.357Z,-0.87
2022-12-13T14:12:26.304Z,-0.93
2022-12-13T14:15:13.906Z,-1.13
2022-12-13T14:18:01.485Z,-0.84
2022-12-13T14:20:49.074Z,-1.01
2022-12-13T14:23:36.696Z,-0.82
2022-12-13T14:26:24.259Z,-1.36
2022-12-13T14:29:11.878Z,-1.37
2022-12-13T14:31:59.510Z,-0.94
2022-12-13T14:34:47.106Z,-1.22
2022-12-13T14:37:34.729Z,-1.01
2022-12-13T14:40:22.357Z,-0.99
2022-12-13T14:43:09.987Z,-1.01
2022-12-13T14:46:11.782Z,-1.10
2022-12-13T14:49:01.632Z,-1.16
2022-12-13T14:51:50.243Z,-1.38
2022-12-13T14:54:37.827Z,-1.33
2022-12-13T14:57:25.453Z,-1.25
2022-12-13T15:00:13.076Z,-1.37
2022-12-13T15:03:00.668Z,-1.67
2022-12-13T15:05:50.774Z,-1.34
2022-12-13T15:08:38.594Z,-1.43
2022-12-13T15:11:26.172Z,-1.33
2022-12-13T15:14:13.730Z,-0.83
2022-12-13T15:17:01.326Z,-0.57
2022-12-13T15:19:49.359Z,-0.38
2022-12-13T15:22:37.063Z,-0.13
2022-12-13T15:25:24.674Z,-0.76
2022-12-13T15:28:14.503Z,-0.81
2022-12-13T15:31:04.458Z,-0.60
2022-12-13T15:33:52.209Z,-0.50
2022-12-13T15:36:39.789Z,-0.29
2022-12-13T15:39:27.448Z,-0.23
2022-12-13T15:42:15.053Z,-0.03
2022-12-13T15:45:07.411Z,-0.20
2022-12-13T15:47:55.014Z,-0.30
2022-12-13T15:50:48.783Z,-0.33
2022-12-13T15:53:36.778Z,-0.51
2022-12-13T15:56:24.364Z,-0.55
2022-12-13T15:59:11.991Z,-0.61
2022-12-13T16:02:01.565Z,-0.71
2022-12-13T16:04:49.185Z,-0.38
2022-12-13T16:07:36.752Z,-0.24
2022-12-13T16:10:24.329Z,-0.21
2022-12-13T16:13:11.899Z,0.10
2022-12-13T16:16:13.697Z,0.27
2022-12-13T16:19:14.331Z,0.17
2022-12-13T16:22:08.573Z,0.42
2022-12-13T16:24:56.809Z,0.13
2022-12-13T16:27:44.416Z,0.09
2022-12-13T16:30:32.110Z,0.03
2022-12-13T16:33:26.772Z,0.03
2022-12-13T16:36:15.079Z,0.36
2022-12-13T16:39:02.655Z,0.41
2022-12-13T16:41:50.254Z,0.53
2022-12-13T16:44:37.867Z,0.52
2022-12-13T16:47:38.970Z,0.53
2022-12-13T16:50:32.150Z,0.93
2022-12-13T16:53:19.742Z,1.03
2022-12-13T16:56:07.322Z,1.03
2022-12-13T16:58:54.936Z,0.76
2022-12-13T17:01:42.562Z,0.01
2022-12-13T17:04:30.281Z,-0.90
2022-12-13T17:07:17.875Z,-0.80
2022-12-13T17:10:07.463Z,-0.36
2022-12-13T17:12:55.054Z,-0.61
2022-12-13T17:15:42.701Z,-0.60
2022-12-13T17:18:30.322Z,-0.02
2022-12-13T17:21:17.999Z,-0.29
2022-12-13T17:24:05.571Z,-0.29
2022-12-13T17:26:54.605Z,-0.29
2022-12-13T17:29:42.755Z,-0.09
2022-12-13T17:32:30.376Z,-0.08
2022-12-13T17:35:18.685Z,-0.04
2022-12-13T17:38:06.370Z,0.06
2022-12-13T17:40:54.689Z,0.31
2022-12-13T17:43:44.724Z,0.36
2022-12-13T17:46:32.332Z,0.09
2022-12-13T17:49:19.930Z,-0.07
2022-12-13T17:52:07.503Z,0.33
2022-12-13T17:54:55.090Z,0.48
2022-12-13T17:57:42.699Z,0.18
2022-12-13T18:00:30.283Z,0.26
2022-12-13T18:03:17.877Z,0.20
2022-12-13T18:06:05.555Z,0.36
2022-12-13T18:08:53.177Z,0.63
2022-12-13T18:11:40.797Z,1.07
2022-12-13T18:14:28.393Z,1.23
2022-12-13T18:17:15.988Z,1.40
2022-12-13T18:20:03.622Z,1.55
2022-12-13T18:22:51.648Z,1.49
2022-12-13T18:25:39.343Z,1.55
2022-12-13T18:28:26.927Z,1.82
2022-12-13T18:31:14.505Z,2.05
2022-12-13T18:34:02.113Z,2.31
2022-12-13T18:36:49.705Z,2.37
2022-12-13T18:39:37.313Z,2.46
2022-12-13T18:42:24.902Z,2.53
2022-12-13T18:45:12.564Z,2.37
2022-12-13T18:48:00.130Z,2.54
2022-12-13T18:50:48.981Z,2.66
2022-12-13T18:53:36.666Z,2.81
2022-12-13T18:56:24.264Z,3.03
2022-12-13T18:59:11.872Z,3.16
2022-12-13T19:01:59.519Z,2.42
2022-12-13T19:04:54.798Z,2.87
2022-12-13T19:07:43.116Z,2.89
2022-12-13T19:10:30.681Z,2.50
2022-12-13T19:13:18.275Z,2.90
2022-12-13T19:16:05.912Z,2.57
2022-12-13T19:18:53.632Z,2.38
2022-12-13T19:21:41.188Z,2.57
2022-12-13T19:24:28.784Z,2.37
2022-12-13T19:27:16.358Z,1.95
2022-12-13T19:30:03.970Z,0.13
2022-12-13T19:32:51.560Z,0.42
2022-12-13T19:35:40.336Z,0.52
2022-12-13T19:38:27.908Z,0.18
2022-12-13T19:41:15.474Z,0.30
2022-12-13T19:44:03.064Z,0.10
2022-12-13T19:46:50.724Z,0.09
2022-12-13T19:49:38.331Z,-0.09
2022-12-13T19:52:25.902Z,0.03
2022-12-13T19:55:13.499Z,0.24
2022-12-13T19:58:01.108Z,0.46
2022-12-13T20:00:48.755Z,0.69
2022-12-13T20:03:36.351Z,0.68
2022-12-13T20:06:23.959Z,0.41
2022-12-13T20:09:11.538Z,0.78
2022-12-13T20:11:59.134Z,0.69
2022-12-13T20:14:46.723Z,0.62
2022-12-13T20:17:34.304Z,1.07
2022-12-13T20:20:22.467Z,0.77
2022-12-13T20:23:10.087Z,1.03
2022-12-13T20:25:57.662Z,1.25
2022-12-13T20:28:45.245Z,1.41
2022-12-13T20:31:32.921Z,1.58
2022-12-13T20:34:20.548Z,2.04
2022-12-13T20:37:08.113Z,2.16
2022-12-13T20:39:55.708Z,2.43
2022-12-13T20:42:43.279Z,2.65
2022-12-13T20:45:30.860Z,2.87
2022-12-13T20:48:18.451Z,3.16
2022-12-13T20:51:06.046Z,3.10
2022-12-13T20:53:53.629Z,3.14
2022-12-13T20:56:41.198Z,3.21
2022-12-13T20:59:28.774Z,3.52
2022-12-13T21:02:16.422Z,3.64
2022-12-13T21:05:04.043Z,3.55
2022-12-13T21:07:51.612Z,3.51
2022-12-13T21:10:39.174Z,3.43
2022-12-13T21:13:27.015Z,3.22
2022-12-13T21:16:14.940Z,3.03
2022-12-13T21:19:02.559Z,3.34
2022-12-13T21:21:50.134Z,2.54
2022-12-13T21:24:37.774Z,2.36
2022-12-13T21:27:25.331Z,2.12
2022-12-13T21:30:12.934Z,1.74
2022-12-13T21:33:00.545Z,1.57
2022-12-13T21:35:48.155Z,1.60
2022-12-13T21:38:35.787Z,2.05
2022-12-13T21:41:23.388Z,2.10
2022-12-13T21:44:10.985Z,2.51
2022-12-13T21:47:14.031Z,3.03
2022-12-13T21:50:01.704Z,3.03
2022-12-13T21:52:49.883Z,3.29
2022-12-13T21:55:39.088Z,3.09
2022-12-13T21:58:27.542Z,2.39
2022-12-13T22:01:15.546Z,3.12
2022-12-13T22:04:06.896Z,3.24
2022-12-13T22:06:54.754Z,3.29
2022-12-13T22:09:42.332Z,3.42
2022-12-13T22:12:30.019Z,3.30
2022-12-13T22:15:19.563Z,3.64
2022-12-13T22:18:07.151Z,3.83
2022-12-13T22:20:54.711Z,3.81
2022-12-13T22:23:42.313Z,3.97
2022-12-13T22:26:29.901Z,3.54
2022-12-13T22:29:17.529Z,3.38
2022-12-13T22:32:05.179Z,3.28
2022-12-13T22:34:52.788Z,3.25
2022-12-13T22:37:40.351Z,3.50
2022-12-13T22:40:27.954Z,3.68
2022-12-13T22:43:20.382Z,3.60
2022-12-13T22:46:08.283Z,3.52
2022-12-13T22:48:55.915Z,3.47
2022-12-13T22:51:43.482Z,3.59
2022-12-13T22:54:31.061Z,3.91
2022-12-13T22:57:18.654Z,3.34
2022-12-13T23:00:06.267Z,3.26
2022-12-13T23:02:53.902Z,3.17
2022-12-13T23:05:41.532Z,3.54
2022-12-13T23:08:29.389Z,3.71
2022-12-13T23:11:17.179Z,3.80
2022-12-13T23:14:04.748Z,3.92
2022-12-13T23:16:52.396Z,3.99
2022-12-13T23:19:50.864Z,3.90
2022-12-13T23:22:41.285Z,4.07
2022-12-13T23:25:28.851Z,4.12
2022-12-13T23:28:16.448Z,4.31
2022-12-13T23:31:04.063Z,4.32
2022-12-13T23:33:51.751Z,4.37
2022-12-13T23:36:39.334Z,4.42
2022-12-13T23:39:26.970Z,4.34
2022-12-13T23:42:14.557Z,3.82
2022-12-13T23:45:02.165Z,3.96
2022-12-13T23:47:49.765Z,3.92
2022-12-13T23:50:37.371Z,3.59
2022-12-13T23:53:24.926Z,2.83
2022-12-13T23:56:12.499Z,2.56
2022-12-13T23:59:01.171Z,2.67
